Time,TemperatureF,DewpointF,PressureIn,WindDirection,WindDirectionDegrees,WindSpeedMPH,WindSpeedGustMPH,Humidity,HourlyPrecipIn,Conditions,Clouds,dailyrainin,SoftwareType,DateUTC
2013-12-05 00:01:00,52.3,38.9,29.65,SSE,162,7.6,7.6,60,0.00,,---,0.00,VWS V14.01,2013-12-05 05:01:00,
2013-12-05 00:02:00,52.3,38.5,29.65,SSE,162,7.6,7.6,59,0.00,,---,0.00,VWS V14.01,2013-12-05 05:02:00,
2013-12-05 00:07:00,52.2,37.0,29.65,SSE,162,7.6,7.6,56,0.00,,---,0.00,VWS V14.01,2013-12-05 05:07:00,
2013-12-05 00:12:00,52.0,36.8,29.62,SSE,162,7.6,7.6,56,0.00,,---,0.00,VWS V14.01,2013-12-05 05:12:00,
2013-12-05 00:17:00,52.0,36.8,29.62,SSE,162,7.6,7.6,56,0.00,,---,0.00,VWS V14.01,2013-12-05 05:17:00,
2013-12-05 00:22:00,52.2,36.5,29.62,SSE,162,7.6,7.6,55,0.00,,---,0.00,VWS V14.01,2013-12-05 05:22:00,
2013-12-05 00:27:00,52.2,35.6,29.65,SSE,162,7.6,7.6,53,0.00,,---,0.00,VWS V14.01,2013-12-05 05:27:00,
2013-12-05 00:32:00,52.2,35.6,29.65,SSE,162,7.6,7.6,53,0.00,,---,0.00,VWS V14.01,2013-12-05 05:32:00,
2013-12-05 00:37:00,52.3,34.8,29.65,SSE,162,7.6,7.6,51,0.00,,---,0.00,VWS V14.01,2013-12-05 05:37:00,
2013-12-05 00:42:00,52.3,35.2,29.65,SSE,162,7.6,7.6,52,0.00,,---,0.00,VWS V14.01,2013-12-05 05:42:00,
2013-12-05 00:47:00,52.3,35.2,29.65,SSE,162,7.6,7.6,52,0.00,,---,0.00,VWS V14.01,2013-12-05 05:47:00,
2013-12-05 00:52:00,52.3,35.2,29.65,SSE,162,7.6,7.6,52,0.00,,---,0.00,VWS V14.01,2013-12-05 05:52:00,
2013-12-05 00:57:00,52.3,35.7,29.65,SSE,162,7.6,7.6,53,0.00,,---,0.00,VWS V14.01,2013-12-05 05:57:00,
2013-12-05 01:02:00,52.3,36.2,29.65,SSE,162,7.6,7.6,54,0.00,,---,0.00,VWS V14.01,2013-12-05 06:02:00,
2013-12-05 01:07:00,52.3,36.2,29.65,SSE,162,7.6,7.6,54,0.00,,---,0.00,VWS V14.01,2013-12-05 06:07:00,
2013-12-05 01:12:00,52.3,33.8,29.65,SSE,162,7.6,7.6,49,0.00,,---,0.00,VWS V14.01,2013-12-05 06:12:00,
2013-12-05 01:17:00,52.3,33.8,29.65,SSE,162,7.6,7.6,49,0.00,,---,0.00,VWS V14.01,2013-12-05 06:17:00,
2013-12-05 01:22:00,52.2,33.1,29.65,SSE,162,7.6,7.6,48,0.00,,---,0.00,VWS V14.01,2013-12-05 06:22:00,
2013-12-05 01:27:00,51.8,33.3,29.65,SSE,162,7.6,7.6,49,0.00,,---,0.00,VWS V14.01,2013-12-05 06:27:00,
2013-12-05 01:32:00,51.6,33.6,29.65,SSE,162,7.6,7.6,50,0.00,,---,0.00,VWS V14.01,2013-12-05 06:32:00,
2013-12-05 01:37:00,51.3,34.2,29.65,SSE,162,7.6,7.6,52,0.00,,---,0.00,VWS V14.01,2013-12-05 06:37:00,
2013-12-05 01:42:00,50.9,33.9,29.68,SSE,162,7.6,7.6,52,0.00,,---,0.00,VWS V14.01,2013-12-05 06:42:00,
2013-12-05 01:47:00,50.2,32.8,29.68,SSE,162,7.6,7.6,51,0.00,,---,0.00,VWS V14.01,2013-12-05 06:47:00,
2013-12-05 01:52:00,49.6,31.3,29.68,SSE,162,7.6,7.6,49,0.00,,---,0.00,VWS V14.01,2013-12-05 06:52:00,
2013-12-05 01:57:00,49.3,29.9,29.68,SSE,162,7.6,7.6,47,0.00,,---,0.00,VWS V14.01,2013-12-05 06:57:00,
2013-12-05 02:02:00,48.7,31.0,29.68,SSE,162,7.6,7.6,50,0.00,,---,0.00,VWS V14.01,2013-12-05 07:02:00,
2013-12-05 02:07:00,48.6,29.3,29.68,SSE,162,7.6,7.6,47,0.00,,---,0.00,VWS V14.01,2013-12-05 07:07:00,
2013-12-05 02:12:00,48.2,30.9,29.68,SSE,162,7.6,7.6,51,0.00,,---,0.00,VWS V14.01,2013-12-05 07:12:00,
2013-12-05 02:18:00,48.0,29.8,29.68,SSE,162,7.6,7.6,49,0.00,,---,0.00,VWS V14.01,2013-12-05 07:18:00,
2013-12-05 02:23:00,47.7,30.4,29.68,SSE,162,7.6,7.6,51,0.00,,---,0.00,VWS V14.01,2013-12-05 07:23:00,
2013-12-05 02:28:00,47.5,27.8,29.68,SSE,162,7.6,7.6,46,0.00,,---,0.00,VWS V14.01,2013-12-05 07:28:00,
2013-12-05 02:33:00,47.1,27.4,29.68,SSE,162,7.6,7.6,46,0.00,,---,0.00,VWS V14.01,2013-12-05 07:33:00,
2013-12-05 02:38:00,46.9,26.2,29.68,SSE,162,7.6,7.6,44,0.00,,---,0.00,VWS V14.01,2013-12-05 07:38:00,
2013-12-05 02:43:00,46.6,24.2,29.71,SSE,162,7.6,7.6,41,0.00,,---,0.00,VWS V14.01,2013-12-05 07:43:00,
2013-12-05 02:48:00,46.4,24.0,29.71,SSE,162,7.6,7.6,41,0.00,,---,0.00,VWS V14.01,2013-12-05 07:48:00,
2013-12-05 02:53:00,46.2,23.2,29.71,SSE,162,7.6,7.6,40,0.00,,---,0.00,VWS V14.01,2013-12-05 07:53:00,
2013-12-05 02:58:00,45.9,22.9,29.68,SSE,162,7.6,7.6,40,0.00,,---,0.00,VWS V14.01,2013-12-05 07:58:00,
2013-12-05 03:03:00,45.5,22.6,29.68,SSE,162,7.6,7.6,40,0.00,,---,0.00,VWS V14.01,2013-12-05 08:03:00,
2013-12-05 03:08:00,45.3,23.6,29.68,SSE,162,7.6,7.6,42,0.00,,---,0.00,VWS V14.01,2013-12-05 08:08:00,
2013-12-05 03:13:00,45.1,23.4,29.71,SSE,162,7.6,7.6,42,0.00,,---,0.00,VWS V14.01,2013-12-05 08:13:00,
2013-12-05 03:18:00,44.6,24.6,29.71,SSE,162,7.6,7.6,45,0.00,,---,0.00,VWS V14.01,2013-12-05 08:18:00,
2013-12-05 03:23:00,44.2,25.8,29.71,SSE,162,7.6,7.6,48,0.00,,---,0.00,VWS V14.01,2013-12-05 08:23:00,
2013-12-05 03:28:00,43.9,25.5,29.71,SSE,162,7.6,7.6,48,0.00,,---,0.00,VWS V14.01,2013-12-05 08:28:00,
2013-12-05 03:33:00,43.5,23.6,29.71,SSE,162,7.6,7.6,45,0.00,,---,0.00,VWS V14.01,2013-12-05 08:33:00,
2013-12-05 03:38:00,43.2,24.8,29.71,SSE,162,7.6,7.6,48,0.00,,---,0.00,VWS V14.01,2013-12-05 08:38:00,
2013-12-05 03:43:00,42.8,24.5,29.71,SSE,162,7.6,7.6,48,0.00,,---,0.00,VWS V14.01,2013-12-05 08:43:00,
2013-12-05 03:48:00,42.4,23.6,29.71,SSE,162,7.6,7.6,47,0.00,,---,0.00,VWS V14.01,2013-12-05 08:48:00,
2013-12-05 03:53:00,42.3,23.5,29.71,SSE,162,7.6,7.6,47,0.00,,---,0.00,VWS V14.01,2013-12-05 08:53:00,
2013-12-05 03:58:00,42.3,24.5,29.74,SSE,162,7.6,7.6,49,0.00,,---,0.00,VWS V14.01,2013-12-05 08:58:00,
2013-12-05 04:03:00,41.9,22.6,29.74,SSE,162,7.6,7.6,46,0.00,,---,0.00,VWS V14.01,2013-12-05 09:03:00,
2013-12-05 04:08:00,41.7,22.0,29.74,SSE,162,7.6,7.6,45,0.00,,---,0.00,VWS V14.01,2013-12-05 09:08:00,
2013-12-05 04:13:00,41.5,23.8,29.74,SSE,162,7.6,7.6,49,0.00,,---,0.00,VWS V14.01,2013-12-05 09:13:00,
2013-12-05 04:18:00,41.2,23.0,29.74,SSE,162,7.6,7.6,48,0.00,,---,0.00,VWS V14.01,2013-12-05 09:18:00,
2013-12-05 04:23:00,41.0,19.7,29.74,SSE,162,7.6,7.6,42,0.00,,---,0.00,VWS V14.01,2013-12-05 09:23:00,
2013-12-05 04:28:00,40.6,19.9,29.74,SSE,162,7.6,7.6,43,0.00,,---,0.00,VWS V14.01,2013-12-05 09:28:00,
2013-12-05 04:33:00,40.5,19.7,29.74,SSE,162,7.6,7.6,43,0.00,,---,0.00,VWS V14.01,2013-12-05 09:33:00,
2013-12-05 04:38:00,40.1,20.0,29.74,SSE,162,7.6,7.6,44,0.00,,---,0.00,VWS V14.01,2013-12-05 09:38:00,
2013-12-05 04:43:00,39.9,19.2,29.74,SSE,162,7.6,7.6,43,0.00,,---,0.00,VWS V14.01,2013-12-05 09:43:00,
2013-12-05 04:48:00,39.7,19.6,29.74,SSE,162,7.6,7.6,44,0.00,,---,0.00,VWS V14.01,2013-12-05 09:48:00,
2013-12-05 04:53:00,39.6,18.9,29.74,SSE,162,7.6,7.6,43,0.00,,---,0.00,VWS V14.01,2013-12-05 09:53:00,
2013-12-05 04:58:00,39.2,19.7,29.74,SSE,162,7.6,7.6,45,0.00,,---,0.00,VWS V14.01,2013-12-05 09:58:00,
2013-12-05 05:03:00,39.2,20.2,29.74,SSE,162,7.6,7.6,46,0.00,,---,0.00,VWS V14.01,2013-12-05 10:03:00,
2013-12-05 05:08:00,39.0,21.0,29.74,SSE,162,7.6,7.6,48,0.00,,---,0.00,VWS V14.01,2013-12-05 10:08:00,
2013-12-05 05:13:00,38.7,21.6,29.74,SSE,162,7.6,7.6,50,0.00,,---,0.00,VWS V14.01,2013-12-05 10:13:00,
2013-12-05 05:27:00,38.5,21.5,29.77,SSE,162,7.6,7.6,50,0.00,,---,0.00,VWS V14.01,2013-12-05 10:27:00,
2013-12-05 05:34:00,38.3,19.9,29.77,SSE,162,7.6,7.6,47,0.00,,---,0.00,VWS V14.01,2013-12-05 10:34:00,
2013-12-05 05:39:00,38.3,20.4,29.77,SSE,162,7.6,7.6,48,0.00,,---,0.00,VWS V14.01,2013-12-05 10:39:00,
2013-12-05 05:44:00,38.1,20.7,29.80,SSE,162,7.6,7.6,49,0.00,,---,0.00,VWS V14.01,2013-12-05 10:44:00,
2013-12-05 05:49:00,37.9,19.5,29.80,SSE,162,7.6,7.6,47,0.00,,---,0.00,VWS V14.01,2013-12-05 10:49:00,
2013-12-05 05:54:00,37.9,18.0,29.80,SSE,162,7.6,7.6,44,0.00,,---,0.00,VWS V14.01,2013-12-05 10:54:00,
2013-12-05 05:59:00,37.8,18.9,29.80,SSE,162,7.6,7.6,46,0.00,,---,0.00,VWS V14.01,2013-12-05 10:59:00,
2013-12-05 06:04:00,37.6,19.2,29.80,SSE,162,7.6,7.6,47,0.00,,---,0.00,VWS V14.01,2013-12-05 11:04:00,
2013-12-05 06:09:00,37.6,20.2,29.80,SSE,162,7.6,7.6,49,0.00,,---,0.00,VWS V14.01,2013-12-05 11:09:00,
2013-12-05 06:14:00,37.4,19.5,29.80,SSE,162,7.6,7.6,48,0.00,,---,0.00,VWS V14.01,2013-12-05 11:14:00,
2013-12-05 06:19:00,37.0,19.7,29.80,SSE,162,7.6,7.6,49,0.00,,---,0.00,VWS V14.01,2013-12-05 11:19:00,
2013-12-05 06:24:00,36.9,20.0,29.80,SSE,162,7.6,7.6,50,0.00,,---,0.00,VWS V14.01,2013-12-05 11:24:00,
2013-12-05 06:29:00,36.7,19.8,29.80,SSE,162,7.6,7.6,50,0.00,,---,0.00,VWS V14.01,2013-12-05 11:29:00,
2013-12-05 06:34:00,36.7,18.9,29.80,SSE,162,7.6,7.6,48,0.00,,---,0.00,VWS V14.01,2013-12-05 11:34:00,
2013-12-05 06:39:00,36.5,17.2,29.80,SSE,162,7.6,7.6,45,0.00,,---,0.00,VWS V14.01,2013-12-05 11:39:00,
2013-12-05 06:44:00,36.5,18.2,29.83,SSE,162,7.6,7.6,47,0.00,,---,0.00,VWS V14.01,2013-12-05 11:44:00,
2013-12-05 06:49:00,36.3,18.0,29.83,SSE,162,7.6,7.6,47,0.00,,---,0.00,VWS V14.01,2013-12-05 11:49:00,
2013-12-05 06:54:00,36.3,18.5,29.83,SSE,162,7.6,7.6,48,0.00,,---,0.00,VWS V14.01,2013-12-05 11:54:00,
2013-12-05 06:59:00,36.1,17.9,29.83,SSE,162,7.6,7.6,47,0.00,,---,0.00,VWS V14.01,2013-12-05 11:59:00,
2013-12-05 07:04:00,36.1,17.9,29.83,SSE,162,7.6,7.6,47,0.00,,---,0.00,VWS V14.01,2013-12-05 12:04:00,
2013-12-05 07:09:00,36.0,16.7,29.83,SSE,162,7.6,7.6,45,0.00,,---,0.00,VWS V14.01,2013-12-05 12:09:00,
2013-12-05 07:14:00,35.8,18.0,29.83,SSE,162,7.6,7.6,48,0.00,,---,0.00,VWS V14.01,2013-12-05 12:14:00,
2013-12-05 07:20:00,35.8,17.5,29.83,SSE,162,7.6,7.6,47,0.00,,---,0.00,VWS V14.01,2013-12-05 12:20:00,
2013-12-05 07:25:00,35.8,18.0,29.83,SSE,162,7.6,7.6,48,0.00,,---,0.00,VWS V14.01,2013-12-05 12:25:00,
2013-12-05 07:30:00,35.6,16.9,29.83,SSE,162,7.6,7.6,46,0.00,,---,0.00,VWS V14.01,2013-12-05 12:30:00,
2013-12-05 07:35:00,35.6,16.9,29.83,SSE,162,7.6,7.6,46,0.00,,---,0.00,VWS V14.01,2013-12-05 12:35:00,
2013-12-05 07:40:00,35.6,16.4,29.83,SSE,162,7.6,7.6,45,0.00,,---,0.00,VWS V14.01,2013-12-05 12:40:00,
2013-12-05 07:45:00,35.4,16.2,29.83,SSE,162,7.6,7.6,45,0.00,,---,0.00,VWS V14.01,2013-12-05 12:45:00,
2013-12-05 07:50:00,35.4,18.2,29.83,SSE,162,7.6,7.6,49,0.00,,---,0.00,VWS V14.01,2013-12-05 12:50:00,
2013-12-05 07:55:00,35.2,18.5,29.83,SSE,162,7.6,7.6,50,0.00,,---,0.00,VWS V14.01,2013-12-05 12:55:00,
2013-12-05 08:00:00,35.1,17.8,29.83,SSE,162,7.6,7.6,49,0.00,,---,0.00,VWS V14.01,2013-12-05 13:00:00,
2013-12-05 08:05:00,35.1,17.4,29.83,SSE,162,7.6,7.6,48,0.00,,---,0.00,VWS V14.01,2013-12-05 13:05:00,
2013-12-05 08:10:00,35.1,18.8,29.86,SSE,162,7.6,7.6,51,0.00,,---,0.00,VWS V14.01,2013-12-05 13:10:00,
2013-12-05 08:15:00,34.9,18.6,29.86,SSE,162,7.6,7.6,51,0.00,,---,0.00,VWS V14.01,2013-12-05 13:15:00,
2013-12-05 08:20:00,34.9,18.6,29.86,SSE,162,7.6,7.6,51,0.00,,---,0.00,VWS V14.01,2013-12-05 13:20:00,
2013-12-05 08:25:00,35.1,18.8,29.86,SSE,162,7.6,7.6,51,0.00,,---,0.00,VWS V14.01,2013-12-05 13:25:00,
2013-12-05 08:30:00,35.1,18.3,29.86,SSE,162,7.6,7.6,50,0.00,,---,0.00,VWS V14.01,2013-12-05 13:30:00,
2013-12-05 08:35:00,35.2,17.0,29.86,SSE,162,7.6,7.6,47,0.00,,---,0.00,VWS V14.01,2013-12-05 13:35:00,
2013-12-05 08:40:00,35.4,16.7,29.86,SSE,162,7.6,7.6,46,0.00,,---,0.00,VWS V14.01,2013-12-05 13:40:00,
2013-12-05 08:45:00,35.4,16.7,29.86,SSE,162,7.6,7.6,46,0.00,,---,0.00,VWS V14.01,2013-12-05 13:45:00,
2013-12-05 08:50:00,35.4,15.7,29.86,SSE,162,7.6,7.6,44,0.00,,---,0.00,VWS V14.01,2013-12-05 13:50:00,
2013-12-05 08:55:00,35.4,15.7,29.86,SSE,162,7.6,7.6,44,0.00,,---,0.00,VWS V14.01,2013-12-05 13:55:00,
2013-12-05 09:00:00,35.4,16.2,29.86,SSE,162,7.6,7.6,45,0.00,,---,0.00,VWS V14.01,2013-12-05 14:00:00,
2013-12-05 09:05:00,35.6,14.8,29.86,SSE,162,7.6,7.6,42,0.00,,---,0.00,VWS V14.01,2013-12-05 14:05:00,
2013-12-05 09:10:00,35.6,14.8,29.89,SSE,162,7.6,7.6,42,0.00,,---,0.00,VWS V14.01,2013-12-05 14:10:00,
2013-12-05 09:15:00,35.4,14.6,29.89,SSE,162,7.6,7.6,42,0.00,,---,0.00,VWS V14.01,2013-12-05 14:15:00,
2013-12-05 09:20:00,35.4,14.6,29.89,SSE,162,7.6,7.6,42,0.00,,---,0.00,VWS V14.01,2013-12-05 14:20:00,
2013-12-05 09:25:00,35.4,15.2,29.89,SSE,162,7.6,7.6,43,0.00,,---,0.00,VWS V14.01,2013-12-05 14:25:00,
2013-12-05 09:30:00,35.2,13.9,29.89,SSE,162,7.6,7.6,41,0.00,,---,0.00,VWS V14.01,2013-12-05 14:30:00,
2013-12-05 09:35:00,35.1,13.8,29.89,SSE,162,7.6,7.6,41,0.00,,---,0.00,VWS V14.01,2013-12-05 14:35:00,
2013-12-05 09:40:00,34.9,13.0,29.89,SSE,162,7.6,7.6,40,0.00,,---,0.00,VWS V14.01,2013-12-05 14:40:00,
2013-12-05 09:45:00,34.9,13.6,29.89,SSE,162,7.6,7.6,41,0.00,,---,0.00,VWS V14.01,2013-12-05 14:45:00,
2013-12-05 09:50:00,34.7,12.9,29.89,SSE,162,7.6,7.6,40,0.00,,---,0.00,VWS V14.01,2013-12-05 14:50:00,
2013-12-05 09:55:00,34.7,13.4,29.92,SSE,162,7.6,7.6,41,0.00,,---,0.00,VWS V14.01,2013-12-05 14:55:00,
2013-12-05 10:01:00,34.7,14.5,29.92,SSE,162,7.6,7.6,43,0.00,,---,0.00,VWS V14.01,2013-12-05 15:01:00,
2013-12-05 10:06:00,34.5,14.3,29.92,SSE,162,7.6,7.6,43,0.00,,---,0.00,VWS V14.01,2013-12-05 15:06:00,
2013-12-05 10:11:00,34.5,14.9,29.92,SSE,162,7.6,7.6,44,0.00,,---,0.00,VWS V14.01,2013-12-05 15:11:00,
2013-12-05 10:16:00,34.5,15.4,29.92,SSE,162,7.6,7.6,45,0.00,,---,0.00,VWS V14.01,2013-12-05 15:16:00,
2013-12-05 10:21:00,34.7,12.9,29.92,SSE,162,7.6,7.6,40,0.00,,---,0.00,VWS V14.01,2013-12-05 15:21:00,
2013-12-05 10:26:00,34.5,13.3,29.92,SSE,162,7.6,7.6,41,0.00,,---,0.00,VWS V14.01,2013-12-05 15:26:00,
2013-12-05 10:31:00,34.5,12.7,29.92,SSE,162,7.6,7.6,40,0.00,,---,0.00,VWS V14.01,2013-12-05 15:31:00,
2013-12-05 10:36:00,34.3,12.5,29.92,SSE,162,7.6,7.6,40,0.00,,---,0.00,VWS V14.01,2013-12-05 15:36:00,
2013-12-05 10:41:00,34.0,13.3,29.95,SSE,162,7.6,7.6,42,0.00,,---,0.00,VWS V14.01,2013-12-05 15:41:00,
2013-12-05 10:46:00,34.0,12.2,29.95,SSE,162,7.6,7.6,40,0.00,,---,0.00,VWS V14.01,2013-12-05 15:46:00,
2013-12-05 10:51:00,34.0,12.2,29.95,SSE,162,7.6,7.6,40,0.00,,---,0.00,VWS V14.01,2013-12-05 15:51:00,
2013-12-05 10:56:00,34.5,13.3,29.95,SSE,162,7.6,7.6,41,0.00,,---,0.00,VWS V14.01,2013-12-05 15:56:00,
2013-12-05 11:01:00,34.7,14.0,29.95,SSE,162,7.6,7.6,42,0.00,,---,0.00,VWS V14.01,2013-12-05 16:01:00,
2013-12-05 11:06:00,34.5,12.7,29.95,SSE,162,7.6,7.6,40,0.00,,---,0.00,VWS V14.01,2013-12-05 16:06:00,
2013-12-05 11:11:00,34.2,13.5,29.95,SSE,162,7.6,7.6,42,0.00,,---,0.00,VWS V14.01,2013-12-05 16:11:00,
2013-12-05 11:16:00,34.2,12.4,29.95,SSE,162,7.6,7.6,40,0.00,,---,0.00,VWS V14.01,2013-12-05 16:16:00,
2013-12-05 11:21:00,34.2,12.9,29.95,SSE,162,7.6,7.6,41,0.00,,---,0.00,VWS V14.01,2013-12-05 16:21:00,
2013-12-05 11:26:00,34.2,11.2,29.95,SSE,162,7.6,7.6,38,0.00,,---,0.00,VWS V14.01,2013-12-05 16:26:00,
2013-12-05 11:31:00,34.7,13.4,29.95,SSE,162,7.6,7.6,41,0.00,,---,0.00,VWS V14.01,2013-12-05 16:31:00,
2013-12-05 11:36:00,35.2,13.4,29.95,SSE,162,7.6,7.6,40,0.00,,---,0.00,VWS V14.01,2013-12-05 16:36:00,
2013-12-05 11:41:00,36.3,11.3,29.95,SSE,162,7.6,7.6,35,0.00,,---,0.00,VWS V14.01,2013-12-05 16:41:00,
2013-12-05 11:46:00,36.9,11.1,29.95,SSE,162,7.6,7.6,34,0.00,,---,0.00,VWS V14.01,2013-12-05 16:46:00,
2013-12-05 11:51:00,36.3,12.6,29.95,SSE,162,7.6,7.6,37,0.00,,---,0.00,VWS V14.01,2013-12-05 16:51:00,
2013-12-05 11:56:00,36.1,11.1,29.95,SSE,162,7.6,7.6,35,0.00,,---,0.00,VWS V14.01,2013-12-05 16:56:00,
2013-12-05 12:01:00,36.0,13.4,29.95,SSE,162,7.6,7.6,39,0.00,,---,0.00,VWS V14.01,2013-12-05 17:01:00,
2013-12-05 12:06:00,35.6,10.0,29.95,SSE,162,7.6,7.6,34,0.00,,---,0.00,VWS V14.01,2013-12-05 17:06:00,
2013-12-05 12:11:00,35.1,11.4,29.95,SSE,162,7.6,7.6,37,0.00,,---,0.00,VWS V14.01,2013-12-05 17:11:00,
2013-12-05 12:16:00,35.2,11.6,29.95,SSE,162,7.6,7.6,37,0.00,,---,0.00,VWS V14.01,2013-12-05 17:16:00,
2013-12-05 12:21:00,35.2,9.0,29.95,SSE,162,7.6,7.6,33,0.00,,---,0.00,VWS V14.01,2013-12-05 17:21:00,
2013-12-05 12:26:00,36.0,9.0,29.95,SSE,162,7.6,7.6,32,0.00,,---,0.00,VWS V14.01,2013-12-05 17:26:00,
2013-12-05 12:31:00,34.3,10.8,29.95,SSE,162,7.6,7.6,37,0.00,,---,0.00,VWS V14.01,2013-12-05 17:31:00,
2013-12-05 12:36:00,33.8,9.1,29.95,SSE,162,7.6,7.6,35,0.00,,---,0.00,VWS V14.01,2013-12-05 17:36:00,
2013-12-05 12:41:00,34.0,9.2,29.98,SSE,162,7.6,7.6,35,0.00,,---,0.00,VWS V14.01,2013-12-05 17:41:00,
2013-12-05 12:46:00,34.9,10.0,29.98,SSE,162,7.6,7.6,35,0.00,,---,0.00,VWS V14.01,2013-12-05 17:46:00,
2013-12-05 12:51:00,34.5,10.3,29.98,SSE,162,7.6,7.6,36,0.00,,---,0.00,VWS V14.01,2013-12-05 17:51:00,
2013-12-05 12:56:00,35.1,8.9,29.98,SSE,162,7.6,7.6,33,0.00,,---,0.00,VWS V14.01,2013-12-05 17:56:00,
2013-12-05 13:01:00,34.9,10.0,29.98,SSE,162,7.6,7.6,35,0.00,,---,0.00,VWS V14.01,2013-12-05 18:01:00,
2013-12-05 13:06:00,33.6,9.5,29.98,SSE,162,7.6,7.6,36,0.00,,---,0.00,VWS V14.01,2013-12-05 18:06:00,
2013-12-05 13:11:00,32.9,8.9,29.98,SSE,162,7.6,7.6,36,0.00,,---,0.00,VWS V14.01,2013-12-05 18:11:00,
2013-12-05 13:16:00,32.5,7.9,29.98,SSE,162,7.6,7.6,35,0.00,,---,0.00,VWS V14.01,2013-12-05 18:16:00,
2013-12-05 13:21:00,33.4,9.4,29.98,SSE,162,7.6,7.6,36,0.00,,---,0.00,VWS V14.01,2013-12-05 18:21:00,
2013-12-05 13:26:00,34.2,8.1,29.98,SSE,162,7.6,7.6,33,0.00,,---,0.00,VWS V14.01,2013-12-05 18:26:00,
2013-12-05 13:31:00,34.7,9.2,29.98,SSE,162,7.6,7.6,34,0.00,,---,0.00,VWS V14.01,2013-12-05 18:31:00,
2013-12-05 13:36:00,35.2,8.4,29.98,SSE,162,7.6,7.6,32,0.00,,---,0.00,VWS V14.01,2013-12-05 18:36:00,
2013-12-05 13:41:00,35.6,8.7,29.98,SSE,162,7.6,7.6,32,0.00,,---,0.00,VWS V14.01,2013-12-05 18:41:00,
2013-12-05 13:46:00,36.0,9.0,29.98,SSE,162,7.6,7.6,32,0.00,,---,0.00,VWS V14.01,2013-12-05 18:46:00,
2013-12-05 13:51:00,35.8,8.8,29.98,SSE,162,7.6,7.6,32,0.00,,---,0.00,VWS V14.01,2013-12-05 18:51:00,
2013-12-05 13:56:00,35.6,8.0,30.01,SSE,162,7.6,7.6,31,0.00,,---,0.00,VWS V14.01,2013-12-05 18:56:00,
2013-12-05 14:01:00,35.1,8.9,30.01,SSE,162,7.6,7.6,33,0.00,,---,0.00,VWS V14.01,2013-12-05 19:01:00,
2013-12-05 14:06:00,34.5,8.4,30.01,SSE,162,7.6,7.6,33,0.00,,---,0.00,VWS V14.01,2013-12-05 19:06:00,
2013-12-05 14:11:00,33.8,8.4,30.01,SSE,162,7.6,7.6,34,0.00,,---,0.00,VWS V14.01,2013-12-05 19:11:00,
2013-12-05 14:16:00,33.4,8.1,30.01,SSE,162,7.6,7.6,34,0.00,,---,0.00,VWS V14.01,2013-12-05 19:16:00,
2013-12-05 14:30:00,34.0,7.9,30.01,SSE,162,7.6,7.6,33,0.00,,---,0.00,VWS V14.01,2013-12-05 19:30:00,
2013-12-05 14:35:00,33.6,6.9,30.01,SSE,162,7.6,7.6,32,0.00,,---,0.00,VWS V14.01,2013-12-05 19:35:00,
2013-12-05 14:41:00,33.3,7.9,30.01,SSE,162,7.6,7.6,34,0.00,,---,0.00,VWS V14.01,2013-12-05 19:41:00,
2013-12-05 14:45:00,32.4,6.5,30.01,SSE,162,7.6,7.6,33,0.00,,---,0.00,VWS V14.01,2013-12-05 19:45:00,
2013-12-05 14:51:00,32.2,5.7,30.01,SSE,162,7.6,7.6,32,0.00,,---,0.00,VWS V14.01,2013-12-05 19:51:00,
2013-12-05 14:56:00,32.0,5.5,30.01,SSE,162,7.6,7.6,32,0.00,,---,0.00,VWS V14.01,2013-12-05 19:56:00,
2013-12-05 15:00:00,32.2,7.0,30.01,SSE,162,7.6,7.6,34,0.00,,---,0.00,VWS V14.01,2013-12-05 20:00:00,
2013-12-05 15:05:00,32.0,6.2,30.01,SSE,162,7.6,7.6,33,0.00,,---,0.00,VWS V14.01,2013-12-05 20:05:00,
2013-12-05 15:11:00,31.5,6.3,30.03,SSE,162,7.6,7.6,34,0.00,,---,0.00,VWS V14.01,2013-12-05 20:11:00,
2013-12-05 15:15:00,31.5,5.7,30.03,SSE,162,7.6,7.6,33,0.00,,---,0.00,VWS V14.01,2013-12-05 20:15:00,
2013-12-05 15:21:00,31.1,5.4,30.03,SSE,162,7.6,7.6,33,0.00,,---,0.00,VWS V14.01,2013-12-05 20:21:00,
2013-12-05 15:26:00,30.7,5.1,30.03,SSE,162,7.6,7.6,33,0.00,,---,0.00,VWS V14.01,2013-12-05 20:26:00,
2013-12-05 15:31:00,30.6,4.9,30.03,SSE,162,7.6,7.6,33,0.00,,---,0.00,VWS V14.01,2013-12-05 20:31:00,
2013-12-05 15:36:00,30.2,4.6,30.03,SSE,162,7.6,7.6,33,0.00,,---,0.00,VWS V14.01,2013-12-05 20:36:00,
2013-12-05 15:41:00,30.0,5.1,30.06,SSE,162,7.6,7.6,34,0.00,,---,0.00,VWS V14.01,2013-12-05 20:41:00,
2013-12-05 15:46:00,29.7,4.7,30.06,SSE,162,7.6,7.6,34,0.00,,---,0.00,VWS V14.01,2013-12-05 20:46:00,
2013-12-05 15:51:00,29.7,4.7,30.06,SSE,162,7.6,7.6,34,0.00,,---,0.00,VWS V14.01,2013-12-05 20:51:00,
2013-12-05 15:56:00,29.7,4.7,30.06,SSE,162,7.6,7.6,34,0.00,,---,0.00,VWS V14.01,2013-12-05 20:56:00,
2013-12-05 16:01:00,29.5,4.6,30.06,SSE,162,7.6,7.6,34,0.00,,---,0.00,VWS V14.01,2013-12-05 21:01:00,
2013-12-05 16:06:00,29.3,4.4,30.06,SSE,162,7.6,7.6,34,0.00,,---,0.00,VWS V14.01,2013-12-05 21:06:00,
2013-12-05 16:11:00,29.1,4.9,30.06,SSE,162,7.6,7.6,35,0.00,,---,0.00,VWS V14.01,2013-12-05 21:11:00,
2013-12-05 16:16:00,28.8,4.6,30.06,SSE,162,7.6,7.6,35,0.00,,---,0.00,VWS V14.01,2013-12-05 21:16:00,
2013-12-05 16:21:00,28.4,4.2,30.06,SSE,162,7.6,7.6,35,0.00,,---,0.00,VWS V14.01,2013-12-05 21:21:00,
2013-12-05 16:26:00,28.0,3.3,30.06,SSE,162,7.6,7.6,34,0.00,,---,0.00,VWS V14.01,2013-12-05 21:26:00,
2013-12-05 16:31:00,27.9,3.8,30.06,SSE,162,7.6,7.6,35,0.00,,---,0.00,VWS V14.01,2013-12-05 21:31:00,
2013-12-05 16:36:00,27.5,3.5,30.06,SSE,162,7.6,7.6,35,0.00,,---,0.00,VWS V14.01,2013-12-05 21:36:00,
2013-12-05 16:41:00,27.3,3.3,30.09,SSE,162,7.6,7.6,35,0.00,,---,0.00,VWS V14.01,2013-12-05 21:41:00,
2013-12-05 16:46:00,27.1,3.1,30.09,SSE,162,7.6,7.6,35,0.00,,---,0.00,VWS V14.01,2013-12-05 21:46:00,
2013-12-05 16:51:00,27.0,3.6,30.09,SSE,162,7.6,7.6,36,0.00,,---,0.00,VWS V14.01,2013-12-05 21:51:00,
2013-12-05 16:56:00,27.0,3.0,30.09,SSE,162,7.6,7.6,35,0.00,,---,0.00,VWS V14.01,2013-12-05 21:56:00,
2013-12-05 17:01:00,26.8,2.2,30.09,SSE,162,7.6,7.6,34,0.00,,---,0.00,VWS V14.01,2013-12-05 22:01:00,
2013-12-05 17:06:00,26.6,3.3,30.09,SSE,162,7.6,7.6,36,0.00,,---,0.00,VWS V14.01,2013-12-05 22:06:00,
2013-12-05 17:11:00,26.4,2.5,30.09,SSE,162,7.6,7.6,35,0.00,,---,0.00,VWS V14.01,2013-12-05 22:11:00,
2013-12-05 17:16:00,26.2,2.9,30.09,SSE,162,7.6,7.6,36,0.00,,---,0.00,VWS V14.01,2013-12-05 22:16:00,
2013-12-05 17:21:00,26.2,2.9,30.09,SSE,162,7.6,7.6,36,0.00,,---,0.00,VWS V14.01,2013-12-05 22:21:00,
2013-12-05 17:26:00,26.2,2.9,30.09,SSE,162,7.6,7.6,36,0.00,,---,0.00,VWS V14.01,2013-12-05 22:26:00,
2013-12-05 17:31:00,26.2,2.9,30.09,SSE,162,7.6,7.6,36,0.00,,---,0.00,VWS V14.01,2013-12-05 22:31:00,
2013-12-05 17:36:00,26.1,2.8,30.09,SSE,162,7.6,7.6,36,0.00,,---,0.00,VWS V14.01,2013-12-05 22:36:00,
2013-12-05 17:41:00,26.1,2.8,30.09,SSE,162,7.6,7.6,36,0.00,,---,0.00,VWS V14.01,2013-12-05 22:41:00,
2013-12-05 17:46:00,26.1,2.8,30.09,SSE,162,7.6,7.6,36,0.00,,---,0.00,VWS V14.01,2013-12-05 22:46:00,
2013-12-05 17:51:00,26.1,2.8,30.09,SSE,162,7.6,7.6,36,0.00,,---,0.00,VWS V14.01,2013-12-05 22:51:00,
2013-12-05 17:56:00,25.7,1.9,30.09,SSE,162,7.6,7.6,35,0.00,,---,0.00,VWS V14.01,2013-12-05 22:56:00,
2013-12-05 18:01:00,25.9,2.0,30.09,SSE,162,7.6,7.6,35,0.00,,---,0.00,VWS V14.01,2013-12-05 23:01:00,
2013-12-05 18:06:00,25.9,2.6,30.09,SSE,162,7.6,7.6,36,0.00,,---,0.00,VWS V14.01,2013-12-05 23:06:00,
2013-12-05 18:11:00,25.7,3.0,30.09,SSE,162,7.6,7.6,37,0.00,,---,0.00,VWS V14.01,2013-12-05 23:11:00,
2013-12-05 18:16:00,25.5,2.3,30.09,SSE,162,7.6,7.6,36,0.00,,---,0.00,VWS V14.01,2013-12-05 23:16:00,
2013-12-05 18:21:00,25.3,2.1,30.09,SSE,162,7.6,7.6,36,0.00,,---,0.00,VWS V14.01,2013-12-05 23:21:00,
2013-12-05 18:26:00,25.3,2.1,30.09,SSE,162,7.6,7.6,36,0.00,,---,0.00,VWS V14.01,2013-12-05 23:26:00,
2013-12-05 18:31:00,25.2,2.0,30.09,SSE,162,7.6,7.6,36,0.00,,---,0.00,VWS V14.01,2013-12-05 23:31:00,
2013-12-05 18:36:00,25.0,1.8,30.09,SSE,162,7.6,7.6,36,0.00,,---,0.00,VWS V14.01,2013-12-05 23:36:00,
2013-12-05 18:41:00,25.0,2.4,30.12,SSE,162,7.6,7.6,37,0.00,,---,0.00,VWS V14.01,2013-12-05 23:41:00,
2013-12-05 18:46:00,25.3,3.9,30.12,SSE,162,7.6,7.6,39,0.00,,---,0.00,VWS V14.01,2013-12-05 23:46:00,
2013-12-05 18:51:00,25.7,2.5,30.12,SSE,162,7.6,7.6,36,0.00,,---,0.00,VWS V14.01,2013-12-05 23:51:00,
2013-12-05 18:56:00,25.5,2.9,30.12,SSE,162,7.6,7.6,37,0.00,,---,0.00,VWS V14.01,2013-12-05 23:56:00,
2013-12-05 19:01:00,25.5,2.9,30.12,SSE,162,7.6,7.6,37,0.00,,---,0.00,VWS V14.01,2013-12-06 00:01:00,
2013-12-05 19:06:00,25.5,3.5,30.12,SSE,162,7.6,7.6,38,0.00,,---,0.00,VWS V14.01,2013-12-06 00:06:00,
2013-12-05 19:11:00,25.7,3.6,30.12,SSE,162,7.6,7.6,38,0.00,,---,0.00,VWS V14.01,2013-12-06 00:11:00,
2013-12-05 19:16:00,25.7,3.6,30.12,SSE,162,7.6,7.6,38,0.00,,---,0.00,VWS V14.01,2013-12-06 00:16:00,
2013-12-05 19:21:00,25.7,3.6,30.12,SSE,162,7.6,7.6,38,0.00,,---,0.00,VWS V14.01,2013-12-06 00:21:00,
2013-12-05 19:26:00,25.7,3.6,30.15,SSE,162,7.6,7.6,38,0.00,,---,0.00,VWS V14.01,2013-12-06 00:26:00,
2013-12-05 19:31:00,25.7,3.6,30.15,SSE,162,7.6,7.6,38,0.00,,---,0.00,VWS V14.01,2013-12-06 00:31:00,
2013-12-05 19:36:00,25.7,3.6,30.15,SSE,162,7.6,7.6,38,0.00,,---,0.00,VWS V14.01,2013-12-06 00:36:00,
2013-12-05 19:41:00,25.7,3.6,30.15,SSE,162,7.6,7.6,38,0.00,,---,0.00,VWS V14.01,2013-12-06 00:41:00,
2013-12-05 19:46:00,25.7,3.6,30.15,SSE,162,7.6,7.6,38,0.00,,---,0.00,VWS V14.01,2013-12-06 00:46:00,
2013-12-05 19:51:00,25.7,3.6,30.15,SSE,162,7.6,7.6,38,0.00,,---,0.00,VWS V14.01,2013-12-06 00:51:00,
2013-12-05 19:56:00,25.7,3.6,30.15,SSE,162,7.6,7.6,38,0.00,,---,0.00,VWS V14.01,2013-12-06 00:56:00,
2013-12-05 20:01:00,25.7,3.6,30.15,SSE,162,7.6,7.6,38,0.00,,---,0.00,VWS V14.01,2013-12-06 01:01:00,
2013-12-05 20:06:00,26.1,3.4,30.15,SSE,162,7.6,7.6,37,0.00,,---,0.00,VWS V14.01,2013-12-06 01:06:00,
2013-12-05 20:11:00,26.1,2.8,30.15,SSE,162,7.6,7.6,36,0.00,,---,0.00,VWS V14.01,2013-12-06 01:11:00,
2013-12-05 20:16:00,26.1,2.8,30.15,SSE,162,7.6,7.6,36,0.00,,---,0.00,VWS V14.01,2013-12-06 01:16:00,
2013-12-05 20:21:00,26.1,2.8,30.15,SSE,162,7.6,7.6,36,0.00,,---,0.00,VWS V14.01,2013-12-06 01:21:00,
2013-12-05 20:26:00,25.9,2.6,30.18,SSE,162,7.6,7.6,36,0.00,,---,0.00,VWS V14.01,2013-12-06 01:26:00,
2013-12-05 20:31:00,25.9,3.2,30.18,SSE,162,7.6,7.6,37,0.00,,---,0.00,VWS V14.01,2013-12-06 01:31:00,
2013-12-05 20:36:00,25.7,3.0,30.18,SSE,162,7.6,7.6,37,0.00,,---,0.00,VWS V14.01,2013-12-06 01:36:00,
2013-12-05 20:41:00,25.3,2.1,30.15,SSE,162,7.6,7.6,36,0.00,,---,0.00,VWS V14.01,2013-12-06 01:41:00,
2013-12-05 20:46:00,25.3,2.1,30.15,SSE,162,7.6,7.6,36,0.00,,---,0.00,VWS V14.01,2013-12-06 01:46:00,
2013-12-05 20:51:00,25.3,2.7,30.15,SSE,162,7.6,7.6,37,0.00,,---,0.00,VWS V14.01,2013-12-06 01:51:00,
2013-12-05 20:56:00,25.3,2.1,30.15,SSE,162,7.6,7.6,36,0.00,,---,0.00,VWS V14.01,2013-12-06 01:56:00,
2013-12-05 21:01:00,25.3,2.1,30.15,SSE,162,7.6,7.6,36,0.00,,---,0.00,VWS V14.01,2013-12-06 02:01:00,
2013-12-05 21:06:00,25.2,2.0,30.15,SSE,162,7.6,7.6,36,0.00,,---,0.00,VWS V14.01,2013-12-06 02:06:00,
2013-12-05 21:11:00,25.2,2.0,30.18,SSE,162,7.6,7.6,36,0.00,,---,0.00,VWS V14.01,2013-12-06 02:11:00,
2013-12-05 21:16:00,25.2,2.0,30.18,SSE,162,7.6,7.6,36,0.00,,---,0.00,VWS V14.01,2013-12-06 02:16:00,
2013-12-05 21:21:00,25.2,2.0,30.18,SSE,162,7.6,7.6,36,0.00,,---,0.00,VWS V14.01,2013-12-06 02:21:00,
2013-12-05 21:26:00,25.2,2.0,30.18,SSE,162,7.6,7.6,36,0.00,,---,0.00,VWS V14.01,2013-12-06 02:26:00,
2013-12-05 21:31:00,25.2,2.0,30.18,SSE,162,7.6,7.6,36,0.00,,---,0.00,VWS V14.01,2013-12-06 02:31:00,
2013-12-05 21:37:00,25.2,1.4,30.18,SSE,162,7.6,7.6,35,0.00,,---,0.00,VWS V14.01,2013-12-06 02:37:00,
2013-12-05 21:42:00,25.2,2.0,30.18,SSE,162,7.6,7.6,36,0.00,,---,0.00,VWS V14.01,2013-12-06 02:42:00,
2013-12-05 21:47:00,25.0,1.8,30.18,SSE,162,7.6,7.6,36,0.00,,---,0.00,VWS V14.01,2013-12-06 02:47:00,
2013-12-05 21:52:00,24.8,1.6,30.18,SSE,162,7.6,7.6,36,0.00,,---,0.00,VWS V14.01,2013-12-06 02:52:00,
2013-12-05 21:57:00,24.8,1.6,30.18,SSE,162,7.6,7.6,36,0.00,,---,0.00,VWS V14.01,2013-12-06 02:57:00,
2013-12-05 22:02:00,24.6,1.5,30.18,SSE,162,7.6,7.6,36,0.00,,---,0.00,VWS V14.01,2013-12-06 03:02:00,
2013-12-05 22:07:00,24.6,1.5,30.18,SSE,162,7.6,7.6,36,0.00,,---,0.00,VWS V14.01,2013-12-06 03:07:00,
2013-12-05 22:12:00,24.4,0.7,30.18,SSE,162,7.6,7.6,35,0.00,,---,0.00,VWS V14.01,2013-12-06 03:12:00,
2013-12-05 22:17:00,24.4,0.7,30.18,SSE,162,7.6,7.6,35,0.00,,---,0.00,VWS V14.01,2013-12-06 03:17:00,
2013-12-05 22:22:00,24.4,0.7,30.18,SSE,162,7.6,7.6,35,0.00,,---,0.00,VWS V14.01,2013-12-06 03:22:00,
2013-12-05 22:27:00,24.4,0.7,30.21,SSE,162,7.6,7.6,35,0.00,,---,0.00,VWS V14.01,2013-12-06 03:27:00,
2013-12-05 22:32:00,24.3,0.6,30.21,SSE,162,7.6,7.6,35,0.00,,---,0.00,VWS V14.01,2013-12-06 03:32:00,
2013-12-05 22:37:00,24.3,0.6,30.21,SSE,162,7.6,7.6,35,0.00,,---,0.00,VWS V14.01,2013-12-06 03:37:00,
2013-12-05 22:42:00,24.1,0.4,30.21,SSE,162,7.6,7.6,35,0.00,,---,0.00,VWS V14.01,2013-12-06 03:42:00,
2013-12-05 22:47:00,23.9,0.2,30.21,SSE,162,7.6,7.6,35,0.00,,---,0.00,VWS V14.01,2013-12-06 03:47:00,
2013-12-05 22:52:00,23.7,0.1,30.21,SSE,162,7.6,7.6,35,0.00,,---,0.00,VWS V14.01,2013-12-06 03:52:00,
2013-12-05 22:57:00,23.7,-0.5,30.21,SSE,162,7.6,7.6,34,0.00,,---,0.00,VWS V14.01,2013-12-06 03:57:00,
2013-12-05 23:02:00,23.7,0.1,30.21,SSE,162,7.6,7.6,35,0.00,,---,0.00,VWS V14.01,2013-12-06 04:02:00,
2013-12-05 23:07:00,23.7,0.1,30.21,SSE,162,7.6,7.6,35,0.00,,---,0.00,VWS V14.01,2013-12-06 04:07:00,
2013-12-05 23:12:00,23.9,-0.4,30.21,SSE,162,7.6,7.6,34,0.00,,---,0.00,VWS V14.01,2013-12-06 04:12:00,
2013-12-05 23:17:00,23.9,-0.4,30.21,SSE,162,7.6,7.6,34,0.00,,---,0.00,VWS V14.01,2013-12-06 04:17:00,
2013-12-05 23:35:00,23.2,-0.4,30.21,SSE,162,7.6,7.6,35,0.00,,---,0.00,VWS V14.01,2013-12-06 04:35:00,
2013-12-05 23:40:00,23.0,-0.6,30.21,SSE,162,7.6,7.6,35,0.00,,---,0.00,VWS V14.01,2013-12-06 04:40:00,
2013-12-05 23:45:00,22.8,-0.1,30.21,SSE,162,7.6,7.6,36,0.00,,---,0.00,VWS V14.01,2013-12-06 04:45:00,
2013-12-05 23:50:00,22.8,-0.7,30.21,SSE,162,7.6,7.6,35,0.00,,---,0.00,VWS V14.01,2013-12-06 04:50:00,
2013-12-05 23:55:00,22.8,-0.7,30.21,SSE,162,7.6,7.6,35,0.00,,---,0.00,VWS V14.01,2013-12-06 04:55:00,